Timeline UpdatesTrip UpdatesNews PostsPvt PostsTravel TipsAdmin PostsConv PostsFollowed PostsChat RequestsBlog PostsPNR Posts

Disclaimer
Search
 
 
Sun Apr 20, 2014 09:09:14 ISTHomeTrainsΣChainsAtlasPNRForumGalleryNewsFAQTripsMembersLoginFeedback
No Recent News for this Train
Other Trains in the News **new
Latest...
.
Fri Jan 17, 2014 (09:13PM)
⇐ Return Journey: Train# 13049

13050/Amritsar-Howrah Express

Oct 13 2013 (9:50PM)
Change Departure Station:
Change Arrival Station:
Post a Train Travel TipPost a Train Travel Tip **new
Post a Comment/Question/Picture/VideoPost a Comment/Question/Picture/Video
Pantry/Catering
✕ NO Pantry Car
✕ NO Catering
RSA - Rake Sharing
no RSA
Rake/Coach Composition
LOCO[wdm3a ldh shed]-HCPV-SLR-GEN-B1-S1-S2-S3-S4-GEN-GEN-GEN-GEN-GEN-MILITARY-GEN-SLR
Loco
WAM-4/ WAG-5 [HWH-MGS] LDH WDM2/3A/3D [MGS-MB] GZB WAP-5 [...
Read more...
MB-ASR].
News    PNR    Forum    Time-Table    Availability    Fare Chart    Map    Arr/Dep History    Trips    Gallery    ΣChains    X/O    Timeline    
Travel Time: 1h 53m    6 halts    Distance: 77 km    Avg Speed: 40 km/hr
Type: Mail/Express
Zone: ER/Eastern
Departs @ 10:28 (Avg 38m late)
Platform# ???
SMTWTFS
Sitarampur Junction/STN 
Arrives @ 12:21 (Avg 30m late)
Platform# ???
SMTWTFS
Mankar/MNAE 

6 halts. 16 intermediate Stations between Sitarampur Junction and Mankar

Show ALL intermediate Stations  Show Old Time-Table

#CodeStation NameX/OArrivesAvgDepartsAvgHaltPFDay#KmSpeedElevZoneAddress
1ASRAmritsar Junction (5)  -18:10+551-1705.292233mNRAmritsar 143002, Punjab
2BEASBeas Junction (2)X  18:38+1718:40+172m21-1662.261238mNRBeas, Punjab
3KREKartarpur (2)X  19:01+1519:03+152m11-1640.873236mNRKartarpur, Punjab
4JUCJalandhar City Junction (5)X  19:15+1819:23+188m21-1626.122239mNRJalandhar 144001, Punjab
5JRCJalandhar Cantt. Junction (3)X  19:36+1319:38+142m21-1621.365239mNRNear Rama Mandi, Punjab
6PGWPhagwara Junction (3)X  19:53+1319:55+132m11-1605.075245mNRPhagwara, Punjab
7PHRPhillaur Junction (3)  20:13+1520:15+152m11-1582.452246mNRPhillaur, Punjab
8LDHLudhiana Junction (7)X  20:30+1720:40+2010m11-1569.351246mNRLudhiana 141001, Punjab
9KNNKhanna (3)X  21:30+1421:32+152m11-1526.561269mNRNH 1, Punjab
10GVGMandi Gobindgarh (2)X  21:40+1621:42+162m11-1518.453268mNRMandi Gobindgarh, Punjab
11SIRSirhind Junction (3)X  21:53+1521:55+152m11-1508.683271mNRSirhind, Punjab
12RPJRajpura Junction (3)X  22:13+1922:14+201m21-1483.756272mNRNH-1, Punjab
13UBCAmbala City (3)  22:36+1522:37+161m11-1463.320273mNRNH-1, Haryana
14UMBAmbala Cantt. Junction (7)X  23:00+1123:10+1110m11-1455.781278mNRAmbala 133001, Haryana
15JUDWJagadhri Workshop (2)  23:44+1423:45+151m11-1409.750280mNRRailway Workshop Road, Haryana
16JUDYamunanagar-Jagadhri (3)X  23:51+1623:53+172m21-1404.743275mNRYamunanagar, Haryana
17SRESaharanpur Junction (6)X  00:35+800:55+620m32-1374.574276mNRSaharanpur, Uttar Pradesh
18RKRoorkee (3)  01:23+2201:28+215m12-1339.844264mNRRoorkee - 247667, Uttarakhand
19LRJLaksar Junction (4)X  01:52+1701:57+165m12-1322.076238mNRLaksar, Uttarakhand
20NBDNajibabad Junction (3)X  02:30+1702:35+175m12-1280.162269mNRNajibabad, Uttar Pradesh
21MBMoradabad Junction (7)X  04:10+1504:20+1910m32-1181.251201mNRMoradabad, Uttar Pradesh
22RJKRaja Ka SahaspurX  04:48+2404:50+252m--2-1157.340196mNRBilari, Uttar Pradesh
23CHChandausi Junction (3)  05:20+2005:25+215m--2-1137.459193mNRChandausi, Uttar Pradesh
24AOAonla  06:08+1906:10+212m--2-1095.339176mNRDist. Bareilly, Uttar Pradesh
25PMRPitambarpur  07:22+2307:24+242m--2-1048.475171mNRPitambarpur, Uttar Pradesh
26TLHTilhar  07:50+3107:52+332m--2-1016.027163mNRTilhar, Uttar Pradesh
27SPNShahjahanpur Junction (3)XO  08:32+1208:37+135m--2-997.860156mNRShahjahanpur, Uttar Pradesh
28AJIAnjhi Shahabad  09:08+1309:10+152m--2-967.077148mNRAnjhi Shahabad, Uttar Pradesh
29HRIHardoi (5)XO  09:35+1509:40+155m32-934.864146mNRHardoi, Uttar Pradesh
30BLMBalamu Junction (4)  10:11+1010:13+112m--2-901.868139mNRBalamau, Uttar Pradesh
31SANSandila (3)  10:31+1210:33+122m--2-881.555132mNRSandila, Uttar Pradesh
32AMGAlamnagar (3)X  11:18+1211:20+152m22-840.017126mNRLucknow, Uttar Pradesh
33LKOLucknow Charbagh (9)  11:45+912:10+925m22-833.059123mNRCharbagh, Uttar Pradesh
34HGHHaidergarh (2)X  13:08+2313:09+251m12-776.244116mNRState Highway 13, Uttar Pradesh
35AKJAkbarGanj (1)  13:32+2113:33+241m12-759.376112mNRSH 31, Uttar Pradesh
36NHHNihalgarh (3)X  13:45+3213:47+372m12-744.071108mNRJagdishpur, Uttar Pradesh
37MFKAMusafir Khana (3)  14:03+4814:04+501m12-725.149105mNRMusfirKhana, Uttar Pradesh
38SLNSultanpur Junction (3)X  14:43+5314:48+1:035m22-693.67399mNRSultanpur., Uttar Pradesh
39LBALambhua (1)  15:06+1:1715:08+1:182m12-671.75797mNRLambhua, Uttar Pradesh
40KEPRKoiripur (1)  15:26+1:2315:27+1:241m12-654.58096mNRNational Highway 56, Uttar Pradesh
41HRPGHarpalGanj (1)  15:35+1:2915:37+1:302m12-643.84490mNRNational Highway 56, Uttar Pradesh
42SKNSri Krishna Nagar (2)X  15:48+1:3015:49+1:311m12-635.85892mNRBadlapur, Uttar Pradesh
43JOPJaunpur City (3)X  16:18+1:2716:20+1:282m12-607.82187mNRJaunpur, Uttar Pradesh
44ZBDZafarabad Junction (4)X  16:38+1:2316:40+1:222m12-601.52583mNRNational Highway 56, Uttar Pradesh
45KSFKhalispur (2)X  17:37+5017:39+492m--2-578.22683mNRPhulpur, Uttar Pradesh
46PDRDPindra Road (2)  17:48+4117:49+411m--2-574.32581mNRSatomahua-Mangari Rd, Uttar Pradesh
47BTPBabatpur (2)X  18:02+4118:03+421m--2-568.82784mNRSatomahua-Mangari Rd, Uttar Pradesh
48SOPShivpur (3)  18:32+3018:34+332m--2-555.91681mNRVaranasi, Uttar Pradesh
49BSBVaranasi Junction (9)X  18:55+3419:15+3720m62-550.32382mNRVaranasi, Uttar Pradesh
50KEIKashi (3)  19:29+3619:31+382m--2-545.01385mNRVaranasi, Uttar Pradesh
51MGSMughal Sarai Junction (8)X20:20+2620:40+3120m12-534.04083mECRMughalsarai 232101, Uttar Pradesh
52KCAKuchman (2)X  20:56+3220:58+332m--2-523.47679mECRKuchman, Uttar Pradesh
53SLDSakaldiha (2)X  21:04+3621:06+382m--2-515.87581mECRState Highway 69, Uttar Pradesh
54DHADheena  21:17+3921:19+422m--2-502.17474mECRDheena, Uttar Pradesh
55ZNAZamaniaX  21:29+4521:31+452m--2-489.86277mECRGhazipur, Uttar Pradesh
56DLNDildarnagar Junction (2)XO  21:44+4521:46+452m--2-476.36772mECRDildarnagar, Uttar Pradesh
57BWHBhadauraX  21:53+4621:55+462m--2-468.47069mECRGhazipur, Uttar Pradesh
58GMRGahmar (2)  22:02+4822:04+492m--2-460.24668mECRDistt: Ghazipur, Uttar Pradesh
59CSAChausa (2)X  22:16+4922:18+512m--2-451.06668mECRState Highway 14, Bihar
60BXRBuxar (3)X  22:28+5122:32+514m--2-440.18967mECRBuxar, Bihar
61DUREDumraon (3)  22:43+5422:45+542m--2-423.76570mECRDumraon, Bihar
62TWGTwining GanjX  22:52+5622:54+562m--2-416.16370mECRArrah Buxar Rd, Bihar
63RPRRaghunathpurXO  23:02+5723:04+582m--2-407.86669mECRRaghunathpur, Bihar
64BYNBanahi  23:12+5823:14+582m--2-398.95967mECRBanahi, Bihar
65BEABihiyaX  23:20+5823:22+582m--2-393.04167mECRBehea, Bihar
66ARAAra Junction (3)X  23:53+4823:58+485m--2-371.68363mECRarrah( 06182-233411), Bihar
67BTABihta (2)X  00:14+5300:16+562m--3-349.41762mECRBihta, Bihar
68DNRDanapur (5)X  01:18+3201:28+3610m--3-332.01258mECRKhagaul, Bihar
69PNBEPatna Junction (10)X02:15+2202:30+3015m--3-322.64257mECRPatna 800001, Bihar
70PNCPatna Saheb (3)  02:44+3402:46+342m--3-312.86159mECRPatna, Bihar
71FUTFatwa (6)X  02:58+3603:00+392m--3-300.56953mECRPatna, Bihar
72BKPBakhtiyarpur Junction (5)  03:20+4303:22+442m--3-277.59151mECRPatna, Bihar
73BARHBarh (3)X  03:34+4703:36+472m--3-259.36549mECRBarh, Bihar
74MKAMokama Junction (3)O  04:00+4504:02+512m--3-233.46348mECRPatna, Bihar
75HTZHathidah Junction (2)X  04:10+5304:12+542m13-225.03550mECRMusahari, Bihar
76BRYABarhiyaX  04:28+5104:30+522m--3-215.66547mECRBarahiya, Bihar
77LKRLuckeesarai Junction (2)  04:44+5504:46+552m--3-200.5952mECRLakhisarai, Bihar
78KIULKiul Junction (5)X  04:55+5305:00+525m--3-199.22053mECRDist. Lakhisarai, Bihar
79MNPMananpur (2)X  05:21+4805:23+502m--3-192.310257mECRState Highway 18, Bihar
80JMUJamui (3)  05:35+5105:37+522m--3-171.97281mECRState Highway 72, Bihar
81GHRGidhaur (2)X  05:49+5405:51+542m--3-157.59106mECRState Highway 18, Bihar
82JAJJhajha (4)  07:07+2007:17+2110m--3-145.975143mECRJhajha, Bihar
83STLSimultala (2)X  07:32+3107:34+312m--3-127.255247mERSimultala, Bihar
84LHBLahabonX  07:45+007:46+01m--3-117.065259mERDeoghar, Jharkhand
85JSMEJasidih Junction (5)  08:00+3408:05+355m--3-101.875271mERJasidih, Jharkhand
86MUWMathurapur (2)  08:19+4008:21+392m--3-84.354261mERDeoghar, Jharkhand
87MDPMadhupur Junction (4)  08:34+4008:44+3510m33-72.781254mER06432-224478, Jharkhand
88VDSVidyasagar (2)  09:02+3909:04+412m--3-48.567250mERJamtara, Jharkhand
89JMTJamtara (2)X  09:20+4009:22+402m23-30.648201mERJamtara, Jharkhand
90CRJChittaranjan (3)  09:40+3709:42+422m23-16.355182mERMihijam, Jharkhand
91RNPRRupnarayanpur (3)  09:47+4409:49+442m--3-11.719191mERChittaranjan, West Bengal
92STN»Sitarampur Junction (5)»XO  10:26+2810:28+382m--30.024139mERG T Rd Before Asansol, West Bengal
93ASNAsansol Junction (7)O  10:50+3111:05+3015m338.872113mERDist - bardhaman, West Bengal
94RNGRaniGanj (4)X  11:20+3711:22+372m--326.94092mERRaniganj, West Bengal
95UDLAndal Junction (6)X  11:33+3411:35+342m--334.28286mERAndal, West Bengal
96OYRWaria (4)  11:41+3511:43+352m--342.45372mERDurgapur, West Bengal
97DGRDurgapur (5)  11:53+3411:57+334m--351.29471mERDurgapur, West Bengal
98PANPanagarh (4)  12:07+3312:09+332m--366.85170mERKaksa, West Bengal
99MNAE•Mankar (4)•  12:21+3012:23+302m--377.04965mERMankur, West Bengal
100KANKhana Junction (5)X  12:53+3012:55+302m--3101.76042mERDist - Bardhaman, West Bengal
101BWNBarddhaman Junction (8)X  13:08+3113:13+315m--3114.76534mERDist - Barddhaman, West Bengal
102BDCBandel Junction (7)  14:15+3014:23+288m--3182.04514mERdist - HOOGHLY, West Bengal
103CNSChuchura (3)  14:28+3014:30+302m--3185.84515mERDist - HOOGHLY - 712102, West Bengal
104CGRChandan Nagar (3)  14:34+3014:36+302m--3188.84316mERDist -HOOGHLY - 712136, West Bengal
105SHESeoraphuli Junction (6)  14:51+2714:53+272m--3199.43813mERBaidyabati, West Bengal
106SRPSerampore (4)  14:57+2114:59+222m--3201.92611mERdist - hooghly, West Bengal
107HWHKolkata Howrah Junction (23)O  15:45+19-113221.6-10mERHowrah 711101, West Bengal
Scroll to Top
Scroll to Bottom